createdAt,value
2023-03-31T00:01:14.724Z,12.10
2023-03-31T00:03:44.392Z,16.60
2023-03-31T00:06:18.913Z,12.00
2023-03-31T00:08:52.514Z,14.30
2023-03-31T00:11:22.461Z,12.10
2023-03-31T00:13:50.730Z,12.30
2023-03-31T00:16:19.802Z,11.70
2023-03-31T00:21:25.909Z,11.80
2023-03-31T00:23:56.978Z,11.90
2023-03-31T00:26:26.530Z,13.20
2023-03-31T00:28:54.610Z,13.30
2023-03-31T00:31:23.758Z,11.70
2023-03-31T00:33:52.153Z,31.30
2023-03-31T00:36:27.603Z,14.80
2023-03-31T00:39:09.577Z,13.10
2023-03-31T00:41:39.453Z,14.40
2023-03-31T00:44:19.237Z,14.10
2023-03-31T00:47:08.145Z,16.00
2023-03-31T00:49:45.068Z,14.00
2023-03-31T00:52:19.233Z,14.40
2023-03-31T00:54:51.806Z,14.90
2023-03-31T00:57:22.404Z,15.90
2023-03-31T00:59:54.969Z,14.20
2023-03-31T01:02:25.800Z,12.90
2023-03-31T01:05:02.136Z,12.00
2023-03-31T01:07:42.477Z,14.30
2023-03-31T01:10:11.976Z,14.70
2023-03-31T01:15:10.804Z,15.90
2023-03-31T01:17:40.829Z,14.30
2023-03-31T01:20:35.576Z,12.60
2023-03-31T01:23:07.150Z,13.60
2023-03-31T01:25:57.814Z,14.30
2023-03-31T01:28:57.279Z,14.40
2023-03-31T01:31:53.652Z,13.80
2023-03-31T01:34:46.435Z,15.50
2023-03-31T01:37:37.857Z,15.80
2023-03-31T01:40:41.264Z,15.40
2023-03-31T01:43:41.318Z,13.80
2023-03-31T01:46:18.268Z,13.80
2023-03-31T01:49:05.082Z,16.70
2023-03-31T01:51:49.530Z,15.50
2023-03-31T01:54:32.042Z,14.00
2023-03-31T01:57:12.074Z,15.70
2023-03-31T02:00:12.853Z,15.50
2023-03-31T02:02:49.995Z,14.80
2023-03-31T02:05:26.342Z,14.80
2023-03-31T02:07:59.760Z,16.10
2023-03-31T02:10:32.151Z,17.00
2023-03-31T02:13:03.019Z,17.70
2023-03-31T02:15:38.250Z,17.90
2023-03-31T02:18:11.616Z,15.90
2023-03-31T02:20:43.354Z,15.60
2023-03-31T02:23:14.204Z,14.40
2023-03-31T02:25:50.926Z,16.70
2023-03-31T02:28:26.802Z,18.40
2023-03-31T02:31:07.844Z,15.50
2023-03-31T02:33:36.225Z,15.30
2023-03-31T02:36:06.196Z,14.80
2023-03-31T02:38:39.586Z,16.50
2023-03-31T02:41:08.573Z,16.30
2023-03-31T02:43:36.745Z,14.20
2023-03-31T02:46:05.243Z,15.00
2023-03-31T02:48:38.005Z,14.90
2023-03-31T02:51:09.413Z,12.40
2023-03-31T02:54:13.480Z,18.80
2023-03-31T02:57:21.354Z,15.20
2023-03-31T03:00:10.439Z,18.00
2023-03-31T03:03:15.339Z,17.50
2023-03-31T03:05:54.920Z,14.50
2023-03-31T03:09:11.625Z,15.50
2023-03-31T03:12:06.922Z,15.30
2023-03-31T03:14:43.105Z,16.70
2023-03-31T03:17:20.754Z,17.00
2023-03-31T03:19:59.076Z,19.80
2023-03-31T03:22:28.083Z,18.40
2023-03-31T03:24:56.372Z,18.30
2023-03-31T03:27:24.704Z,16.50
2023-03-31T03:29:52.814Z,16.60
2023-03-31T03:32:20.980Z,17.70
2023-03-31T03:34:49.448Z,18.10
2023-03-31T03:37:17.850Z,17.70
2023-03-31T03:39:46.102Z,15.40
2023-03-31T03:42:14.361Z,19.00
2023-03-31T03:44:42.867Z,18.20
2023-03-31T03:47:11.043Z,17.40
2023-03-31T03:49:39.222Z,20.40
2023-03-31T03:52:07.887Z,19.00
2023-03-31T03:54:36.171Z,18.70
2023-03-31T03:57:04.390Z,19.30
2023-03-31T03:59:32.620Z,15.50
2023-03-31T04:02:01.020Z,18.60
2023-03-31T04:04:29.177Z,19.10
2023-03-31T04:06:57.336Z,16.20
2023-03-31T04:09:25.819Z,16.40
2023-03-31T04:11:53.989Z,16.70
2023-03-31T04:14:22.474Z,19.80
2023-03-31T04:16:50.537Z,17.40
2023-03-31T04:19:18.941Z,18.30
2023-03-31T04:21:51.185Z,17.90
2023-03-31T04:24:22.055Z,17.20
2023-03-31T04:26:51.161Z,19.40
2023-03-31T04:31:52.904Z,20.00
2023-03-31T04:34:22.240Z,17.10
2023-03-31T04:39:30.901Z,17.30
2023-03-31T04:42:00.726Z,18.90
2023-03-31T04:44:29.606Z,16.90
2023-03-31T04:46:59.129Z,17.60
2023-03-31T04:49:27.291Z,18.50
2023-03-31T04:51:55.317Z,21.00
2023-03-31T04:54:23.458Z,18.10
2023-03-31T04:56:51.734Z,16.40
2023-03-31T04:59:19.993Z,16.80
2023-03-31T05:01:48.221Z,17.50
2023-03-31T05:04:16.540Z,18.60
2023-03-31T05:06:44.737Z,19.10
2023-03-31T05:09:13.090Z,16.80
2023-03-31T05:11:41.404Z,19.10
2023-03-31T05:14:09.671Z,17.80
2023-03-31T05:16:37.897Z,17.00
2023-03-31T05:19:06.229Z,15.60
2023-03-31T05:21:34.570Z,20.50
2023-03-31T05:24:03.253Z,15.70
2023-03-31T05:26:31.538Z,17.20
2023-03-31T05:29:00.012Z,17.40
2023-03-31T05:31:28.216Z,19.10
2023-03-31T05:33:56.792Z,19.60
2023-03-31T05:36:27.302Z,19.30
2023-03-31T05:38:55.638Z,16.90
2023-03-31T05:41:23.735Z,17.60
2023-03-31T05:43:51.931Z,18.00
2023-03-31T05:46:20.300Z,18.00
2023-03-31T05:48:48.634Z,19.40
2023-03-31T05:51:16.969Z,16.70
2023-03-31T05:53:46.454Z,18.90
2023-03-31T05:56:14.732Z,18.40
2023-03-31T05:58:43.106Z,18.00
2023-03-31T06:01:14.770Z,33.00
2023-03-31T06:03:44.721Z,57.30
2023-03-31T06:06:15.065Z,45.50
2023-03-31T06:08:45.524Z,45.50
2023-03-31T06:11:17.007Z,48.10
2023-03-31T06:13:45.905Z,53.70
2023-03-31T06:16:15.718Z,52.70
2023-03-31T06:18:43.930Z,55.50
2023-03-31T06:21:18.129Z,43.20
2023-03-31T06:23:46.643Z,40.40
2023-03-31T06:26:17.990Z,27.50
2023-03-31T06:28:46.860Z,32.80
2023-03-31T06:31:17.539Z,20.00
2023-03-31T06:33:46.743Z,77.30
2023-03-31T06:38:46.184Z,42.60
2023-03-31T06:41:16.443Z,150.20
2023-03-31T06:43:45.012Z,52.40
2023-03-31T06:46:14.145Z,63.30
2023-03-31T06:51:11.194Z,46.20
2023-03-31T06:53:39.255Z,90.60
2023-03-31T06:56:07.820Z,82.90
2023-03-31T06:58:36.722Z,42.10
2023-03-31T07:01:07.103Z,38.10
2023-03-31T07:03:35.822Z,32.10
2023-03-31T07:06:04.626Z,26.70
2023-03-31T07:08:33.109Z,32.10
2023-03-31T07:11:02.308Z,34.10
2023-03-31T07:13:30.488Z,30.10
2023-03-31T07:15:59.005Z,26.60
2023-03-31T07:18:35.076Z,32.10
2023-03-31T07:21:07.288Z,23.50
2023-03-31T07:23:38.015Z,28.10
2023-03-31T07:26:06.446Z,21.00
2023-03-31T07:28:35.490Z,23.00
2023-03-31T07:31:10.424Z,24.20
2023-03-31T07:33:38.684Z,32.10
2023-03-31T07:36:11.875Z,24.80
2023-03-31T07:38:43.970Z,25.40
2023-03-31T07:41:17.887Z,27.00
2023-03-31T07:43:47.080Z,23.80
2023-03-31T07:46:22.384Z,22.80
2023-03-31T07:48:51.807Z,22.80
2023-03-31T07:53:49.885Z,30.90
2023-03-31T07:56:24.179Z,25.50
2023-03-31T07:58:55.221Z,25.50
2023-03-31T08:01:26.390Z,31.50
2023-03-31T08:03:55.847Z,30.80
2023-03-31T08:06:26.145Z,26.00
2023-03-31T08:08:54.366Z,25.30
2023-03-31T08:11:22.754Z,25.00
2023-03-31T08:13:51.142Z,26.90
2023-03-31T08:16:19.298Z,24.00
2023-03-31T08:18:47.794Z,31.90
2023-03-31T08:21:16.368Z,25.30
2023-03-31T08:23:44.573Z,26.50
2023-03-31T08:26:22.011Z,24.10
2023-03-31T08:28:50.859Z,22.50
2023-03-31T08:31:21.565Z,30.70
2023-03-31T08:33:49.651Z,23.30
2023-03-31T08:36:17.792Z,24.00
2023-03-31T08:38:49.910Z,23.10
2023-03-31T08:41:23.966Z,24.40
2023-03-31T08:43:56.440Z,21.50
2023-03-31T08:46:28.090Z,24.90
2023-03-31T08:48:58.776Z,26.80
2023-03-31T08:51:34.103Z,23.40
2023-03-31T08:54:15.764Z,25.60
2023-03-31T08:56:49.773Z,26.20
2023-03-31T08:59:34.037Z,23.30
2023-03-31T09:02:31.894Z,21.30
2023-03-31T09:05:56.782Z,24.20
2023-03-31T09:08:48.218Z,26.40
2023-03-31T09:11:27.345Z,28.50
2023-03-31T09:14:13.849Z,27.50
2023-03-31T09:16:51.692Z,26.10
2023-03-31T09:19:32.146Z,28.30
2023-03-31T09:22:01.955Z,28.30
2023-03-31T09:24:46.353Z,25.20
2023-03-31T09:27:15.366Z,26.60
2023-03-31T09:30:11.086Z,25.20
2023-03-31T09:32:40.336Z,27.10
2023-03-31T09:37:46.659Z,28.20
2023-03-31T09:40:27.304Z,32.70
2023-03-31T09:43:21.942Z,27.80
2023-03-31T09:46:07.765Z,26.00
2023-03-31T09:48:39.280Z,23.80
2023-03-31T09:51:15.962Z,24.90
2023-03-31T09:54:04.759Z,25.20
2023-03-31T09:56:43.765Z,28.80
2023-03-31T10:01:50.975Z,25.70
2023-03-31T10:04:28.714Z,29.20
2023-03-31T10:06:57.701Z,24.60
2023-03-31T10:09:28.907Z,26.20
2023-03-31T10:12:02.532Z,23.40
2023-03-31T10:14:45.979Z,23.90
2023-03-31T10:17:19.855Z,25.60
2023-03-31T10:20:00.638Z,23.20
2023-03-31T10:22:32.454Z,20.20
2023-03-31T10:25:11.683Z,20.50
2023-03-31T10:27:42.617Z,18.50
2023-03-31T10:30:17.474Z,19.80
2023-03-31T10:32:48.060Z,20.90
2023-03-31T10:35:33.823Z,21.70
2023-03-31T10:38:11.926Z,22.80
2023-03-31T10:40:49.431Z,23.90
2023-03-31T10:43:21.347Z,23.60
2023-03-31T10:45:56.532Z,24.00
2023-03-31T10:48:33.403Z,24.30
2023-03-31T10:51:13.510Z,26.80
2023-03-31T10:53:51.810Z,21.80
2023-03-31T10:56:29.042Z,25.60
2023-03-31T10:59:12.879Z,21.10
2023-03-31T11:02:39.325Z,22.60
2023-03-31T11:05:13.631Z,21.10
2023-03-31T11:08:00.061Z,20.80
2023-03-31T11:11:05.148Z,19.80
2023-03-31T11:13:49.459Z,19.20
2023-03-31T11:16:33.869Z,21.60
2023-03-31T11:19:14.133Z,19.30
2023-03-31T11:21:51.020Z,21.70
2023-03-31T11:24:48.277Z,23.00
2023-03-31T11:27:16.851Z,20.50
2023-03-31T11:29:47.861Z,20.00
2023-03-31T11:32:31.718Z,18.40
2023-03-31T11:35:14.648Z,21.30
2023-03-31T11:38:03.407Z,18.10
2023-03-31T11:40:57.799Z,24.40
2023-03-31T11:43:45.013Z,20.20
2023-03-31T11:46:24.743Z,24.50
2023-03-31T11:49:03.916Z,24.10
2023-03-31T11:51:37.489Z,22.80
2023-03-31T11:54:12.328Z,18.90
2023-03-31T11:56:41.720Z,21.80
2023-03-31T11:59:16.309Z,20.00
2023-03-31T12:02:11.062Z,22.50
2023-03-31T12:04:44.366Z,25.00
2023-03-31T12:07:30.360Z,24.00
2023-03-31T12:10:17.339Z,24.60
2023-03-31T12:12:49.050Z,20.30
2023-03-31T12:15:17.123Z,21.90
2023-03-31T12:17:50.507Z,25.40
2023-03-31T12:20:30.644Z,23.20
2023-03-31T12:23:02.705Z,27.00
2023-03-31T12:25:50.794Z,32.00
2023-03-31T12:28:20.734Z,26.30
2023-03-31T12:30:51.322Z,24.40
2023-03-31T12:33:28.754Z,29.90
2023-03-31T12:36:31.401Z,23.10
2023-03-31T12:39:05.831Z,27.90
2023-03-31T12:42:03.479Z,27.90
2023-03-31T12:44:47.766Z,24.20
2023-03-31T12:47:19.095Z,31.70
2023-03-31T12:50:05.144Z,24.90
2023-03-31T12:52:58.509Z,23.70
2023-03-31T12:55:46.904Z,28.00
2023-03-31T12:58:30.774Z,23.50
2023-03-31T13:01:14.945Z,23.60
2023-03-31T13:03:55.594Z,23.20
2023-03-31T13:06:27.936Z,29.40
2023-03-31T13:08:57.250Z,24.30
2023-03-31T13:11:39.653Z,23.90
2023-03-31T13:14:20.008Z,23.80
2023-03-31T13:16:55.578Z,26.50
2023-03-31T13:19:38.166Z,21.40
2023-03-31T13:22:06.980Z,21.80
2023-03-31T13:24:35.523Z,21.20
2023-03-31T13:27:34.375Z,21.80
2023-03-31T13:32:30.966Z,23.20
2023-03-31T13:35:05.736Z,20.00
2023-03-31T13:37:59.884Z,21.10
2023-03-31T13:40:39.222Z,22.90
2023-03-31T13:46:10.478Z,23.80
2023-03-31T13:49:14.083Z,23.50
2023-03-31T13:51:59.685Z,23.60
2023-03-31T13:54:57.033Z,20.50
2023-03-31T13:57:52.766Z,22.30
2023-03-31T14:00:51.219Z,22.70
2023-03-31T14:03:28.420Z,21.30
2023-03-31T14:06:32.244Z,22.30
2023-03-31T14:09:04.087Z,20.20
2023-03-31T14:11:32.973Z,21.70
2023-03-31T14:14:18.189Z,20.30
2023-03-31T14:16:51.332Z,21.20
2023-03-31T14:19:35.582Z,20.90
2023-03-31T14:22:20.149Z,24.20
2023-03-31T14:25:13.107Z,22.00
2023-03-31T14:28:02.567Z,22.30
2023-03-31T14:30:49.513Z,25.10
2023-03-31T14:33:17.621Z,22.40
2023-03-31T14:36:19.521Z,24.70
2023-03-31T14:38:47.878Z,25.60
2023-03-31T14:41:20.431Z,22.70
2023-03-31T14:43:51.364Z,22.30
2023-03-31T14:46:21.979Z,22.50
2023-03-31T14:48:52.292Z,22.80
2023-03-31T14:51:31.231Z,19.20
2023-03-31T14:54:01.225Z,23.60
2023-03-31T14:56:43.713Z,24.90
2023-03-31T14:59:21.106Z,23.50
2023-03-31T15:01:51.061Z,25.30
2023-03-31T15:04:28.756Z,22.90
2023-03-31T15:07:05.225Z,24.00
2023-03-31T15:09:36.500Z,23.20
2023-03-31T15:12:12.691Z,24.10
2023-03-31T15:14:47.175Z,30.50
2023-03-31T15:17:42.335Z,25.50
2023-03-31T15:20:31.113Z,26.20
2023-03-31T15:22:59.903Z,24.90
2023-03-31T15:25:36.948Z,28.70
2023-03-31T15:28:08.905Z,28.60
2023-03-31T15:30:37.763Z,27.00
2023-03-31T15:33:19.816Z,29.20
2023-03-31T15:35:48.872Z,28.80
2023-03-31T15:38:18.737Z,29.30
2023-03-31T15:40:56.285Z,33.40
2023-03-31T15:43:31.051Z,24.80
2023-03-31T15:46:01.357Z,29.60
2023-03-31T15:48:38.890Z,28.30
2023-03-31T15:51:46.835Z,30.80
2023-03-31T15:54:36.206Z,27.40
2023-03-31T15:57:06.550Z,27.00
2023-03-31T15:59:56.935Z,28.30
2023-03-31T16:02:30.428Z,26.40
2023-03-31T16:04:59.907Z,26.60
2023-03-31T16:07:32.914Z,29.00
2023-03-31T16:10:20.574Z,29.60
2023-03-31T16:13:01.769Z,29.10
2023-03-31T16:15:44.969Z,29.40
2023-03-31T16:18:31.362Z,29.90
2023-03-31T16:21:02.908Z,31.80
2023-03-31T16:23:34.561Z,29.90
2023-03-31T16:26:03.150Z,29.10
2023-03-31T16:28:37.826Z,28.00
2023-03-31T16:31:26.238Z,30.80
2023-03-31T16:33:56.794Z,31.90
2023-03-31T16:36:25.113Z,29.20
2023-03-31T16:38:57.954Z,31.50
2023-03-31T16:41:29.136Z,33.70
2023-03-31T16:43:57.629Z,28.20
2023-03-31T16:46:26.291Z,35.00
2023-03-31T16:48:54.662Z,30.20
2023-03-31T16:51:23.484Z,28.60
2023-03-31T16:53:51.703Z,30.20
2023-03-31T16:56:19.764Z,29.60
2023-03-31T16:58:47.882Z,28.40
2023-03-31T17:01:16.324Z,26.10
2023-03-31T17:03:44.829Z,28.40
2023-03-31T17:06:13.643Z,29.20
2023-03-31T17:08:42.007Z,30.60
2023-03-31T17:11:12.676Z,27.40
2023-03-31T17:13:42.757Z,27.20
2023-03-31T17:18:43.455Z,37.10
2023-03-31T17:21:14.756Z,28.40
2023-03-31T17:23:42.926Z,32.20
2023-03-31T17:26:15.647Z,32.00
2023-03-31T17:28:44.253Z,29.90
2023-03-31T17:31:17.715Z,30.40
2023-03-31T17:33:46.820Z,26.60
2023-03-31T17:36:15.888Z,29.30
2023-03-31T17:38:45.189Z,35.10
2023-03-31T17:41:14.270Z,26.50
2023-03-31T17:43:47.185Z,31.10
2023-03-31T17:46:15.711Z,29.00
2023-03-31T17:48:44.869Z,32.90
2023-03-31T17:51:16.443Z,29.40
2023-03-31T17:53:46.967Z,30.10
2023-03-31T17:56:17.104Z,29.50
2023-03-31T17:58:46.451Z,28.50
2023-03-31T18:01:14.997Z,28.00
2023-03-31T18:03:45.141Z,30.20
2023-03-31T18:06:14.639Z,33.30
2023-03-31T18:08:42.938Z,30.20
2023-03-31T18:11:11.605Z,29.60
2023-03-31T18:13:39.862Z,29.30
2023-03-31T18:16:09.989Z,26.50
2023-03-31T18:18:39.693Z,30.40
2023-03-31T18:21:11.143Z,28.20
2023-03-31T18:23:40.274Z,28.20
2023-03-31T18:26:10.990Z,31.20
2023-03-31T18:28:43.170Z,27.10
2023-03-31T18:31:12.929Z,26.80
2023-03-31T18:33:42.513Z,28.40
2023-03-31T18:36:17.867Z,28.40
2023-03-31T18:38:48.336Z,28.50
2023-03-31T18:41:17.953Z,32.30
2023-03-31T18:43:47.947Z,27.00
2023-03-31T18:46:21.636Z,26.70
2023-03-31T18:48:50.431Z,20.00
2023-03-31T18:51:18.539Z,27.40
2023-03-31T18:53:46.986Z,25.80
2023-03-31T18:56:14.995Z,25.90
2023-03-31T18:58:44.059Z,25.40
2023-03-31T19:01:12.284Z,26.70
2023-03-31T19:03:40.424Z,27.10
2023-03-31T19:06:10.445Z,28.30
2023-03-31T19:08:39.493Z,26.40
2023-03-31T19:11:17.154Z,28.40
2023-03-31T19:13:45.373Z,25.90
2023-03-31T19:16:14.503Z,27.50
2023-03-31T19:18:43.693Z,29.50
2023-03-31T19:23:40.871Z,29.50
2023-03-31T19:26:14.325Z,27.30
2023-03-31T19:28:42.756Z,29.30
2023-03-31T19:31:11.774Z,27.10
2023-03-31T19:33:39.991Z,28.90
2023-03-31T19:36:08.762Z,27.30
2023-03-31T19:38:37.449Z,26.80
2023-03-31T19:41:06.983Z,27.10
2023-03-31T19:43:35.257Z,28.10
2023-03-31T19:46:03.982Z,27.00
2023-03-31T19:48:34.128Z,27.90
2023-03-31T19:51:07.845Z,29.70
2023-03-31T19:53:39.432Z,27.20
2023-03-31T19:56:10.936Z,29.90
2023-03-31T19:58:39.832Z,26.10
2023-03-31T20:01:15.362Z,30.50
2023-03-31T20:03:43.905Z,30.00
2023-03-31T20:06:15.582Z,27.10
2023-03-31T20:08:43.951Z,28.90
2023-03-31T20:11:15.040Z,28.80
2023-03-31T20:13:44.243Z,27.30
2023-03-31T20:16:15.197Z,28.30
2023-03-31T20:18:49.105Z,29.00
2023-03-31T20:21:19.595Z,27.40
2023-03-31T20:23:48.085Z,29.00
2023-03-31T20:26:18.978Z,29.20
2023-03-31T20:28:48.048Z,29.30
2023-03-31T20:31:20.139Z,28.30
2023-03-31T20:33:49.273Z,27.90
2023-03-31T20:38:51.382Z,31.00
2023-03-31T20:41:22.238Z,29.50
2023-03-31T20:43:50.807Z,29.00
2023-03-31T20:46:19.109Z,28.50
2023-03-31T20:48:51.270Z,24.30
2023-03-31T20:51:22.144Z,26.20
2023-03-31T20:53:53.172Z,27.50
2023-03-31T20:56:27.888Z,27.70
2023-03-31T20:58:59.533Z,26.00
2023-03-31T21:01:31.966Z,27.20
2023-03-31T21:04:02.142Z,27.50
2023-03-31T21:06:32.885Z,23.40
2023-03-31T21:09:01.171Z,27.90
2023-03-31T21:11:29.559Z,27.40
2023-03-31T21:13:57.826Z,28.20
2023-03-31T21:16:26.476Z,28.40
2023-03-31T21:18:59.875Z,26.40
2023-03-31T21:21:29.090Z,23.60
2023-03-31T21:23:57.160Z,27.00
2023-03-31T21:26:25.896Z,27.40
2023-03-31T21:28:54.664Z,27.90
2023-03-31T21:31:25.193Z,26.00
2023-03-31T21:33:56.716Z,26.20
2023-03-31T21:36:25.576Z,30.30
2023-03-31T21:38:54.636Z,24.80
2023-03-31T21:41:28.891Z,27.80
2023-03-31T21:44:00.491Z,24.20
2023-03-31T21:46:33.750Z,28.10
2023-03-31T21:49:03.181Z,31.50
2023-03-31T21:51:31.700Z,28.70
2023-03-31T21:54:00.240Z,29.70
2023-03-31T21:56:31.886Z,26.70
2023-03-31T21:59:04.291Z,27.50
2023-03-31T22:01:32.545Z,25.90
2023-03-31T22:04:00.885Z,25.60
2023-03-31T22:06:29.393Z,27.30
2023-03-31T22:08:57.781Z,25.70
2023-03-31T22:11:26.751Z,27.40
2023-03-31T22:13:54.808Z,27.80
2023-03-31T22:16:23.570Z,28.00
2023-03-31T22:18:52.978Z,31.60
2023-03-31T22:21:24.930Z,27.30
2023-03-31T22:23:55.228Z,29.10
2023-03-31T22:26:24.047Z,26.80
2023-03-31T22:28:52.274Z,28.10
2023-03-31T22:31:21.091Z,25.10
2023-03-31T22:33:49.655Z,27.00
2023-03-31T22:36:17.977Z,26.60
2023-03-31T22:38:46.478Z,29.20
2023-03-31T22:41:14.882Z,27.40
2023-03-31T22:43:45.817Z,29.30
2023-03-31T22:46:15.065Z,25.00
2023-03-31T22:48:50.547Z,24.00
2023-03-31T22:51:18.553Z,26.80
2023-03-31T22:53:51.817Z,27.60
2023-03-31T22:56:21.329Z,27.40
2023-03-31T22:58:51.458Z,28.80
2023-03-31T23:01:21.819Z,27.30
2023-03-31T23:03:50.524Z,22.50
2023-03-31T23:06:19.374Z,25.20
2023-03-31T23:08:49.094Z,25.90
2023-03-31T23:11:18.989Z,27.10
2023-03-31T23:13:47.699Z,27.00
2023-03-31T23:16:19.206Z,25.40
2023-03-31T23:18:48.599Z,31.50
2023-03-31T23:23:51.504Z,29.60
2023-03-31T23:26:21.843Z,23.70
2023-03-31T23:28:51.294Z,27.70
2023-03-31T23:31:23.397Z,30.40
2023-03-31T23:33:52.313Z,26.90
2023-03-31T23:36:21.681Z,27.70
2023-03-31T23:38:52.426Z,27.30
2023-03-31T23:41:22.853Z,28.50
2023-03-31T23:43:51.416Z,27.60
2023-03-31T23:46:20.049Z,28.70
2023-03-31T23:48:48.220Z,27.40
2023-03-31T23:51:16.649Z,31.40
2023-03-31T23:53:45.267Z,28.10
2023-03-31T23:56:13.611Z,29.60
2023-03-31T23:58:44.467Z,28.60
